createdAt,value
2022-12-24T00:03:07.169Z,4.60
2022-12-24T00:08:15.513Z,4.60
2022-12-24T00:13:24.286Z,4.60
2022-12-24T00:18:32.657Z,4.50
2022-12-24T00:23:42.074Z,4.60
2022-12-24T00:28:50.557Z,4.60
2022-12-24T00:33:59.526Z,4.60
2022-12-24T00:39:08.118Z,4.60
2022-12-24T00:44:17.407Z,4.70
2022-12-24T00:49:26.308Z,4.70
2022-12-24T00:54:35.050Z,4.70
2022-12-24T00:59:43.744Z,4.70
2022-12-24T01:04:52.455Z,4.70
2022-12-24T01:10:01.198Z,4.70
2022-12-24T01:15:10.057Z,4.70
2022-12-24T01:20:18.412Z,4.70
2022-12-24T01:25:26.984Z,4.60
2022-12-24T01:30:35.466Z,4.60
2022-12-24T01:35:44.540Z,4.60
2022-12-24T01:40:53.054Z,4.60
2022-12-24T01:46:02.236Z,4.60
2022-12-24T01:51:10.657Z,4.50
2022-12-24T01:56:19.481Z,4.50
2022-12-24T02:01:28.085Z,4.60
2022-12-24T02:06:36.897Z,4.60
2022-12-24T02:11:45.667Z,4.60
2022-12-24T02:16:54.585Z,4.60
2022-12-24T02:22:02.687Z,4.60
2022-12-24T02:27:11.809Z,4.60
2022-12-24T02:32:20.474Z,4.60
2022-12-24T02:37:29.703Z,4.60
2022-12-24T02:42:38.135Z,4.60
2022-12-24T02:47:46.896Z,4.70
2022-12-24T02:52:55.101Z,4.70
2022-12-24T02:58:03.714Z,4.70
2022-12-24T03:03:12.420Z,4.60
2022-12-24T03:08:20.816Z,4.60
2022-12-24T03:13:29.422Z,4.60
2022-12-24T03:18:38.300Z,4.60
2022-12-24T03:23:46.940Z,4.60
2022-12-24T03:28:55.832Z,4.60
2022-12-24T03:34:04.669Z,4.60
2022-12-24T03:39:13.649Z,4.70
2022-12-24T03:44:22.666Z,4.70
2022-12-24T03:49:31.756Z,4.60
2022-12-24T03:54:40.026Z,4.70
2022-12-24T03:59:49.075Z,4.60
2022-12-24T04:04:57.537Z,4.60
2022-12-24T04:10:06.914Z,4.60
2022-12-24T04:15:15.659Z,4.50
2022-12-24T04:20:24.563Z,4.50
2022-12-24T04:25:32.846Z,4.50
2022-12-24T04:30:41.647Z,4.60
2022-12-24T04:35:49.844Z,4.50
2022-12-24T04:40:58.515Z,4.60
2022-12-24T04:46:06.977Z,4.60
2022-12-24T04:51:15.683Z,4.60
2022-12-24T04:56:24.132Z,4.60
2022-12-24T05:01:33.146Z,4.50
2022-12-24T05:06:41.664Z,4.50
2022-12-24T05:11:50.654Z,4.50
2022-12-24T05:16:59.429Z,4.50
2022-12-24T05:22:08.212Z,4.60
2022-12-24T05:27:16.314Z,4.50
2022-12-24T05:32:25.597Z,4.50
2022-12-24T05:37:34.416Z,4.50
2022-12-24T05:42:43.173Z,4.50
2022-12-24T05:47:51.707Z,4.60
2022-12-24T05:53:00.464Z,4.60
2022-12-24T05:58:08.854Z,4.60
2022-12-24T06:03:17.553Z,4.60
2022-12-24T06:08:26.200Z,4.50
2022-12-24T06:13:35.087Z,4.50
2022-12-24T06:23:49.402Z,4.50
2022-12-24T06:28:58.023Z,4.70
2022-12-24T06:34:07.058Z,4.70
2022-12-24T06:39:15.528Z,4.70
2022-12-24T06:44:24.317Z,4.80
2022-12-24T06:49:33.092Z,4.90
2022-12-24T06:54:41.451Z,4.90
2022-12-24T06:59:50.071Z,5.00
2022-12-24T07:04:59.078Z,5.10
2022-12-24T07:10:07.358Z,5.20
2022-12-24T07:15:15.917Z,5.30
2022-12-24T07:20:24.520Z,5.40
2022-12-24T07:25:33.520Z,5.50
2022-12-24T07:30:41.826Z,5.60
2022-12-24T07:35:55.812Z,5.60
2022-12-24T07:40:59.138Z,5.70
2022-12-24T07:46:08.486Z,5.80
2022-12-24T07:51:17.610Z,5.60
2022-12-24T07:56:26.260Z,5.60
2022-12-24T08:01:34.692Z,5.60
2022-12-24T08:06:43.297Z,5.70
2022-12-24T08:11:52.583Z,5.70
2022-12-24T08:17:00.382Z,5.80
2022-12-24T08:22:09.072Z,5.70
2022-12-24T08:27:18.223Z,5.80
2022-12-24T08:32:26.595Z,5.90
2022-12-24T08:37:35.760Z,6.00
2022-12-24T08:42:44.424Z,5.90
2022-12-24T08:47:53.554Z,5.90
2022-12-24T08:53:02.548Z,5.80
2022-12-24T08:58:11.303Z,5.70
2022-12-24T09:03:26.998Z,5.60
2022-12-24T09:08:28.154Z,5.60
2022-12-24T09:13:36.968Z,5.70
2022-12-24T09:18:45.917Z,5.70
2022-12-24T09:23:54.424Z,5.60
2022-12-24T09:29:03.401Z,5.70
2022-12-24T09:34:11.687Z,5.80
2022-12-24T09:39:20.941Z,5.70
2022-12-24T09:44:29.682Z,5.50
2022-12-24T09:49:38.875Z,5.50
2022-12-24T09:54:49.848Z,5.50
2022-12-24T09:59:55.124Z,5.50
2022-12-24T10:05:03.837Z,5.50
2022-12-24T10:10:12.489Z,5.60
2022-12-24T10:15:21.180Z,5.70
2022-12-24T10:20:30.527Z,5.70
2022-12-24T10:25:39.279Z,5.70
2022-12-24T10:30:48.891Z,5.60
2022-12-24T10:35:57.358Z,5.40
2022-12-24T10:41:06.500Z,5.30
2022-12-24T10:46:14.831Z,5.20
2022-12-24T10:51:23.580Z,5.10
2022-12-24T10:56:32.362Z,5.00
2022-12-24T11:01:41.562Z,5.00
2022-12-24T11:06:50.310Z,5.10
2022-12-24T11:12:03.745Z,5.10
2022-12-24T11:17:06.841Z,5.10
2022-12-24T11:22:15.798Z,5.20
2022-12-24T11:27:24.291Z,5.10
2022-12-24T11:32:33.001Z,5.20
2022-12-24T11:37:41.539Z,5.20
2022-12-24T11:42:50.571Z,5.20
2022-12-24T11:47:59.133Z,5.30
2022-12-24T11:53:07.796Z,5.30
2022-12-24T11:58:16.316Z,5.20
2022-12-24T12:03:24.951Z,5.10
2022-12-24T12:08:33.293Z,5.10
2022-12-24T12:13:42.404Z,5.10
2022-12-24T12:18:51.020Z,5.10
2022-12-24T12:23:59.973Z,5.00
2022-12-24T12:29:08.556Z,4.90
2022-12-24T12:34:17.731Z,5.00
2022-12-24T12:39:26.303Z,5.00
2022-12-24T12:44:35.244Z,5.10
2022-12-24T12:49:43.717Z,5.10
2022-12-24T12:54:53.107Z,5.10
2022-12-24T13:00:01.762Z,5.00
2022-12-24T13:05:10.945Z,4.90
2022-12-24T13:10:19.593Z,4.90
2022-12-24T13:15:28.533Z,4.90
2022-12-24T13:20:36.739Z,4.90
2022-12-24T13:25:45.837Z,4.90
2022-12-24T13:30:54.082Z,4.90
2022-12-24T13:36:02.776Z,4.80
2022-12-24T13:41:11.430Z,4.80
2022-12-24T13:46:20.569Z,4.70
2022-12-24T13:51:28.955Z,4.70
2022-12-24T13:56:37.502Z,4.60
2022-12-24T14:01:45.910Z,4.60
2022-12-24T14:06:54.495Z,4.60
2022-12-24T14:12:03.024Z,4.70
2022-12-24T14:17:12.104Z,4.60
2022-12-24T14:22:20.534Z,4.60
2022-12-24T14:27:29.342Z,4.50
2022-12-24T14:32:37.953Z,4.50
2022-12-24T14:37:47.201Z,4.50
2022-12-24T14:42:55.547Z,4.50
2022-12-24T14:48:04.513Z,4.50
2022-12-24T14:53:18.605Z,4.40
2022-12-24T14:58:21.061Z,4.40
2022-12-24T15:03:29.791Z,4.40
2022-12-24T15:08:38.552Z,4.40
2022-12-24T15:13:46.855Z,4.40
2022-12-24T15:18:55.731Z,4.50
2022-12-24T15:24:03.983Z,4.40
2022-12-24T15:29:12.765Z,4.30
2022-12-24T15:34:21.132Z,4.30
2022-12-24T15:39:29.862Z,4.20
2022-12-24T15:44:37.934Z,4.20
2022-12-24T15:49:46.466Z,4.10
2022-12-24T15:54:58.118Z,4.20
2022-12-24T16:00:03.332Z,4.20
2022-12-24T16:05:13.003Z,4.20
2022-12-24T16:10:21.404Z,4.20
2022-12-24T16:15:29.712Z,4.20
2022-12-24T16:20:37.998Z,4.10
2022-12-24T16:25:46.161Z,4.00
2022-12-24T16:30:54.948Z,4.00
2022-12-24T16:36:03.041Z,3.90
2022-12-24T16:41:11.289Z,3.70
2022-12-24T16:46:19.775Z,3.60
2022-12-24T16:51:28.245Z,3.50
2022-12-24T16:56:36.364Z,3.30
2022-12-24T17:01:45.087Z,3.10
2022-12-24T17:06:53.118Z,2.90
2022-12-24T17:12:01.880Z,2.80
2022-12-24T17:17:10.177Z,2.70
2022-12-24T17:22:18.522Z,2.60
2022-12-24T17:27:26.628Z,2.50
2022-12-24T17:32:35.220Z,2.30
2022-12-24T17:37:43.482Z,2.20
2022-12-24T17:42:52.754Z,2.10
2022-12-24T17:48:01.193Z,2.00
2022-12-24T17:53:09.714Z,2.00
2022-12-24T17:58:17.796Z,2.00
2022-12-24T18:03:27.382Z,1.90
2022-12-24T18:08:35.791Z,1.80
2022-12-24T18:13:44.708Z,1.70
2022-12-24T18:18:52.991Z,1.60
2022-12-24T18:24:01.584Z,1.60
2022-12-24T18:29:09.857Z,1.50
2022-12-24T18:34:19.447Z,1.40
2022-12-24T18:39:27.701Z,1.40
2022-12-24T18:44:39.641Z,1.30
2022-12-24T18:49:37.859Z,1.30
2022-12-24T18:54:46.353Z,1.20
2022-12-24T18:59:55.033Z,1.20
2022-12-24T19:05:03.890Z,1.10
2022-12-24T19:10:12.152Z,1.00
2022-12-24T19:15:22.413Z,0.90
2022-12-24T19:20:20.628Z,0.90
2022-12-24T19:25:29.091Z,0.80
2022-12-24T19:30:37.586Z,0.80
2022-12-24T19:35:46.554Z,0.70
2022-12-24T19:40:54.874Z,0.70
2022-12-24T19:46:03.912Z,0.70
2022-12-24T19:51:12.451Z,0.60
2022-12-24T19:56:21.407Z,0.60
2022-12-24T20:01:30.232Z,0.70
2022-12-24T20:06:38.566Z,0.80
2022-12-24T20:11:46.683Z,0.80
2022-12-24T20:16:55.724Z,0.90
2022-12-24T20:22:04.014Z,1.10
2022-12-24T20:27:12.832Z,1.10
2022-12-24T20:32:20.974Z,1.10
2022-12-24T20:37:29.727Z,1.10
2022-12-24T20:42:37.972Z,0.90
2022-12-24T20:47:46.730Z,0.70
2022-12-24T20:52:54.900Z,0.50
2022-12-24T20:58:03.449Z,0.40
2022-12-24T21:03:11.953Z,0.30
2022-12-24T21:08:20.659Z,0.20
2022-12-24T21:13:29.345Z,0.10
2022-12-24T21:18:38.236Z,0.00
2022-12-24T21:23:46.550Z,0.00
2022-12-24T21:28:55.423Z,-0.10
2022-12-24T21:34:03.880Z,-0.20
2022-12-24T21:39:12.395Z,-0.30
2022-12-24T21:44:20.454Z,-0.40
2022-12-24T21:49:29.195Z,-0.50
2022-12-24T21:54:37.524Z,-0.50
2022-12-24T21:59:46.180Z,-0.60
2022-12-24T22:04:54.746Z,-0.60
2022-12-24T22:10:03.442Z,-0.70
2022-12-24T22:15:11.911Z,-0.80
2022-12-24T22:20:20.929Z,-0.90
2022-12-24T22:25:29.425Z,-0.90
2022-12-24T22:30:38.139Z,-1.00
2022-12-24T22:35:46.313Z,-1.00
2022-12-24T22:40:55.073Z,-1.10
2022-12-24T22:46:03.662Z,-1.10
2022-12-24T22:51:12.224Z,-1.20
2022-12-24T22:56:20.796Z,-1.20
2022-12-24T23:01:29.408Z,-1.30
2022-12-24T23:06:37.581Z,-1.30
2022-12-24T23:11:46.198Z,-1.30
2022-12-24T23:16:54.461Z,-1.40
2022-12-24T23:22:02.933Z,-1.50
2022-12-24T23:27:11.124Z,-1.60
2022-12-24T23:32:19.552Z,-1.60
2022-12-24T23:37:34.609Z,-1.60
2022-12-24T23:42:35.993Z,-1.70
2022-12-24T23:47:44.370Z,-1.80
2022-12-24T23:52:53.175Z,-1.80
2022-12-24T23:58:01.545Z,-2.00
